Terminal Aerodrome Forecast
Issued by NWS

Current Version | Previous Version | Graphics & Text | Print | Product List | Glossary On
Versions: 1 2 3 4 5 6 7 8 9 10 11 12 13 14 15 16 17 18
000
FTUS41 KPBZ 272300
TAFHLG
TAF
KHLG 272323Z 2800/2824 33012KT P6SM SCT025 BKN035
      TEMPO 2800/2802 2SM -SHSN BKN025
     FM280400 32010KT P6SM BKN035
     FM281500 30008KT P6SM SCT035=

USA.gov is the U.S. government's official web portal to all federal, state and local government web resources and services.